Time;durP1;ratioP1;P1;durP2;ratioP2;P2;SDS_P1;SDS_P2;PMS_P1;PMS_P2;Temp;Humidity;BMP_temperature;BMP_pressure;BME280_temperature;BME280_humidity;BME280_pressure;Samples;Min_cycle;Max_cycle;Signal;HPM_P1;HPM_P2
2021/09/05 00:01:47;;;;;;;;;;;;;;;17.77;52.58;100005.06;4395703;32;32735;-92
2021/09/05 00:04:58;;;;;;;;;;;;;;;17.72;53.02;100005.63;4402414;32;20000;-94
2021/09/05 00:07:40;;;;;;;;;;;;;;;17.71;52.93;100013.84;4391117;32;34582;-94
2021/09/05 00:10:22;;;;;;;;;;;;;;;17.71;52.96;100003.94;4381564;32;35834;-94
2021/09/05 00:13:05;;;;;;;;;;;;;;;17.70;53.35;100010.34;4381873;32;32928;-94
2021/09/05 00:15:54;;;;;;;;;;;;;;;17.74;53.24;100011.62;4377154;32;34892;-93
2021/09/05 00:18:36;;;;;;;;;;;;;;;17.62;53.70;100012.28;4395239;32;34635;-94
2021/09/05 00:21:19;;;;;;;;;;;;;;;17.67;53.40;100018.78;4405854;32;33656;-94
2021/09/05 00:24:01;;;;;;;;;;;;;;;17.49;54.22;100017.47;4389172;32;34436;-94
2021/09/05 00:26:46;;;;;;;;;;;;;;;14.93;62.68;100064.03;4372213;32;34738;-91
2021/09/05 00:29:28;;;;;;;;;;;;;;;16.32;59.04;100050.13;4394435;32;35524;-92
2021/09/05 00:32:10;;;;;;;;;;;;;;;16.33;58.77;100046.41;4403680;32;35720;-95
2021/09/05 00:34:52;;;;;;;;;;;;;;;15.67;61.18;100040.59;4382365;32;33833;-95
2021/09/05 00:37:41;;;;;;;;;;;;;;;15.91;60.30;100037.00;4367413;32;34410;-96
2021/09/05 00:40:23;;;;;;;;;;;;;;;16.13;60.08;100050.53;4406099;32;36423;-96
2021/09/05 00:43:05;;;;;;;;;;;;;;;16.57;58.76;100064.28;4401783;32;34005;-94
2021/09/05 00:45:47;;;;;;;;;;;;;;;17.33;56.96;100060.59;4386517;32;32803;-95
2021/09/05 00:48:29;;;;;;;;;;;;;;;17.64;55.47;100066.72;4378755;32;34022;-94
2021/09/05 00:51:12;;;;;;;;;;;;;;;17.62;55.37;100074.16;4395246;32;34957;-96
2021/09/05 00:53:54;;;;;;;;;;;;;;;17.57;55.28;100069.31;4381906;32;36028;-94
2021/09/05 00:56:37;;;;;;;;;;;;;;;17.57;55.48;100072.00;4341133;32;34283;-94
2021/09/05 00:59:23;;;;;;;;;;;;;;;17.64;55.48;100067.59;4383589;32;34123;-94
2021/09/05 01:02:05;;;;;;;;;;;;;;;17.74;55.16;100078.06;4352523;32;28535;-95
2021/09/05 01:04:47;;;;;;;;;;;;;;;17.84;54.77;100070.56;4369157;32;35358;-93
2021/09/05 01:07:29;;;;;;;;;;;;;;;17.77;54.63;100069.66;4397376;32;32295;-94
2021/09/05 01:10:13;;;;;;;;;;;;;;;17.68;55.05;100079.62;4388778;32;33255;-96
2021/09/05 01:12:55;;;;;;;;;;;;;;;17.54;55.45;100077.75;4380269;32;36189;-94
2021/09/05 01:15:38;;;;;;;;;;;;;;;17.29;56.09;100080.81;4389018;32;33252;-95
2021/09/05 01:18:20;;;;;;;;;;;;;;;17.40;56.01;100084.94;4391817;32;32218;-94
2021/09/05 01:21:03;;;;;;;;;;;;;;;17.42;56.02;100077.53;4372631;32;33126;-94
2021/09/05 01:23:45;;;;;;;;;;;;;;;17.57;56.08;100080.09;4375846;32;36482;-94
2021/09/05 01:26:32;;;;;;;;;;;;;;;17.67;55.74;100080.66;4366338;32;33721;-92
2021/09/05 01:29:15;;;;;;;;;;;;;;;17.77;55.69;100085.78;4424784;32;32299;-96
2021/09/05 01:31:59;;;;;;;;;;;;;;;17.75;55.51;100090.50;4365274;32;33284;-96
2021/09/05 01:34:41;;;;;;;;;;;;;;;17.75;55.76;100085.13;4388308;32;34144;-95
2021/09/05 01:37:23;;;;;;;;;;;;;;;17.69;55.70;100096.62;4397261;32;35502;-95
2021/09/05 01:40:06;;;;;;;;;;;;;;;17.57;56.00;100096.22;4417067;32;32878;-95
2021/09/05 01:42:48;;;;;;;;;;;;;;;17.48;55.77;100108.06;4411560;32;34420;-95
2021/09/05 01:45:30;;;;;;;;;;;;;;;17.48;55.89;100105.37;4402066;32;34162;-96
2021/09/05 01:48:13;;;;;;;;;;;;;;;17.51;55.84;100101.50;4416604;32;34873;-95
2021/09/05 01:50:58;;;;;;;;;;;;;;;17.40;55.86;100106.47;4399835;32;32692;-93
2021/09/05 01:53:40;;;;;;;;;;;;;;;17.39;56.11;100108.34;4410859;32;32783;-96
2021/09/05 01:56:22;;;;;;;;;;;;;;;17.44;56.12;100111.28;4376380;32;34775;-93
2021/09/05 01:59:05;;;;;;;;;;;;;;;17.43;56.10;100106.94;4380675;32;35109;-95
2021/09/05 02:01:54;;;;;;;;;;;;;;;17.48;55.93;100110.75;4365755;32;34203;-96
2021/09/05 02:04:38;;;;;;;;;;;;;;;17.39;56.33;100116.41;4393002;32;32884;-94
2021/09/05 02:07:21;;;;;;;;;;;;;;;17.40;56.24;100114.53;4404537;32;34447;-94
2021/09/05 02:10:04;;;;;;;;;;;;;;;17.44;56.06;100103.22;4409959;32;34354;-95
2021/09/05 02:12:54;;;;;;;;;;;;;;;17.31;56.48;100116.41;4381355;32;33764;-95
2021/09/05 02:15:36;;;;;;;;;;;;;;;17.32;56.75;100107.34;4386867;32;33501;-94
2021/09/05 02:18:30;;;;;;;;;;;;;;;17.22;57.27;100120.19;4402130;32;19968;-95
2021/09/05 02:21:19;;;;;;;;;;;;;;;17.23;57.29;100121.84;4389591;32;35748;-96
2021/09/05 02:24:01;;;;;;;;;;;;;;;17.40;56.71;100123.44;4383830;32;32672;-95
2021/09/05 02:26:43;;;;;;;;;;;;;;;17.35;56.92;100123.09;4383937;32;32924;-94
2021/09/05 02:29:26;;;;;;;;;;;;;;;17.39;56.77;100121.78;4388798;32;34013;-95
2021/09/05 02:32:10;;;;;;;;;;;;;;;17.41;57.07;100121.56;4393847;32;35685;-94
2021/09/05 02:34:52;;;;;;;;;;;;;;;17.36;57.16;100124.81;4410232;32;32948;-95
2021/09/05 02:37:37;;;;;;;;;;;;;;;17.24;57.52;100128.91;4376467;32;35308;-95
2021/09/05 02:40:26;;;;;;;;;;;;;;;17.29;57.15;100129.22;4371972;32;36040;-93
2021/09/05 02:43:08;;;;;;;;;;;;;;;17.33;57.13;100126.97;4379806;32;33789;-95
2021/09/05 02:45:51;;;;;;;;;;;;;;;17.33;57.22;100135.91;4409868;32;33057;-95
2021/09/05 02:48:34;;;;;;;;;;;;;;;17.38;57.09;100135.41;4402795;32;33475;-93
2021/09/05 02:51:18;;;;;;;;;;;;;;;17.32;57.47;100130.69;4417140;32;34727;-95
2021/09/05 02:54:00;;;;;;;;;;;;;;;17.27;57.64;100130.41;4385789;32;34052;-94
2021/09/05 02:56:42;;;;;;;;;;;;;;;17.24;57.73;100136.97;4408321;32;33390;-95
2021/09/05 02:59:24;;;;;;;;;;;;;;;17.10;57.45;100131.50;4409407;32;33439;-94
2021/09/05 03:02:06;;;;;;;;;;;;;;;17.11;57.96;100134.03;4416619;32;35661;-94
2021/09/05 03:04:49;;;;;;;;;;;;;;;17.19;57.84;100128.59;4429554;32;33615;-94
2021/09/05 03:07:38;;;;;;;;;;;;;;;17.11;57.94;100131.34;4390340;32;33894;-95
2021/09/05 03:10:24;;;;;;;;;;;;;;;17.06;58.43;100130.22;4384496;32;33467;-95
2021/09/05 03:13:10;;;;;;;;;;;;;;;17.20;57.79;100132.97;4411784;32;35120;-94
2021/09/05 03:15:52;;;;;;;;;;;;;;;17.14;57.95;100140.88;4393493;32;33716;-94
2021/09/05 03:18:34;;;;;;;;;;;;;;;17.16;57.84;100139.69;4417335;32;32656;-95
2021/09/05 03:21:20;;;;;;;;;;;;;;;17.16;57.69;100139.69;4400788;32;34964;-93
2021/09/05 03:24:02;;;;;;;;;;;;;;;17.17;57.96;100145.94;4414368;32;35911;-94
2021/09/05 03:26:48;;;;;;;;;;;;;;;17.06;58.23;100144.47;4377939;32;34079;-95
2021/09/05 03:29:30;;;;;;;;;;;;;;;17.17;57.98;100145.94;4377072;32;33370;-95
2021/09/05 03:32:16;;;;;;;;;;;;;;;16.95;58.88;100142.19;4370480;32;35342;-95
2021/09/05 03:34:58;;;;;;;;;;;;;;;17.09;58.46;100148.66;4382645;32;34264;-94
2021/09/05 03:37:44;;;;;;;;;;;;;;;17.10;58.42;100143.13;4401122;32;33760;-94
2021/09/05 03:40:26;;;;;;;;;;;;;;;17.15;58.51;100147.94;4393364;32;33700;-94
2021/09/05 03:43:08;;;;;;;;;;;;;;;17.18;58.67;100147.59;4397874;32;35535;-95
2021/09/05 03:45:54;;;;;;;;;;;;;;;17.29;58.20;100150.72;4395180;32;35988;-94
2021/09/05 03:48:48;;;;;;;;;;;;;;;17.30;58.42;100146.16;4397709;32;20009;-94
2021/09/05 03:51:44;;;;;;;;;;;;;;;17.30;58.39;100149.72;4420624;32;20627;-94
2021/09/05 03:54:26;;;;;;;;;;;;;;;17.28;58.50;100153.59;4412876;32;34965;-95
2021/09/05 03:57:08;;;;;;;;;;;;;;;17.32;58.39;100158.44;4397799;32;36778;-94
2021/09/05 03:59:50;;;;;;;;;;;;;;;17.22;58.69;100159.66;4414054;32;34154;-96
2021/09/05 04:02:32;;;;;;;;;;;;;;;16.88;60.23;100164.56;4405950;32;33907;-94
2021/09/05 04:05:14;;;;;;;;;;;;;;;16.92;60.33;100158.69;4388126;32;33391;-93
2021/09/05 04:08:13;;;;;;;;;;;;;;;17.26;58.92;100166.37;4380109;32;34514;-95
2021/09/05 04:10:56;;;;;;;;;;;;;;;17.25;58.68;100172.78;4410322;32;33963;-96
2021/09/05 04:13:42;;;;;;;;;;;;;;;17.16;59.29;100171.97;4405091;32;35114;-95
2021/09/05 04:16:25;;;;;;;;;;;;;;;17.13;59.46;100175.03;4402483;32;33278;-96
2021/09/05 04:19:08;;;;;;;;;;;;;;;16.97;60.36;100172.41;4383120;32;34933;-94
2021/09/05 04:21:50;;;;;;;;;;;;;;;17.14;59.79;100181.22;4393380;32;33968;-95
2021/09/05 04:24:32;;;;;;;;;;;;;;;17.27;59.37;100176.94;4394073;32;32940;-95
2021/09/05 04:27:14;;;;;;;;;;;;;;;17.33;59.35;100183.47;4403502;32;33799;-92
2021/09/05 04:29:57;;;;;;;;;;;;;;;17.58;58.35;100186.69;4418726;32;34712;-95
2021/09/05 04:32:40;;;;;;;;;;;;;;;17.60;58.13;100192.72;4389962;32;33925;-95
2021/09/05 04:35:22;;;;;;;;;;;;;;;17.35;59.25;100190.34;4410876;32;32602;-96
2021/09/05 04:38:08;;;;;;;;;;;;;;;17.56;58.58;100199.47;4420817;32;33175;-95
2021/09/05 04:40:51;;;;;;;;;;;;;;;17.31;59.47;100202.47;4411980;32;34763;-96
2021/09/05 04:43:33;;;;;;;;;;;;;;;16.65;61.62;100198.56;4428890;32;33874;-94
2021/09/05 04:46:15;;;;;;;;;;;;;;;16.52;61.84;100199.13;4384177;32;35841;-95
2021/09/05 04:48:58;;;;;;;;;;;;;;;17.34;59.55;100203.97;4384924;32;34309;-94
2021/09/05 04:51:48;;;;;;;;;;;;;;;16.77;61.03;100202.56;4388438;32;35934;-93
2021/09/05 04:54:31;;;;;;;;;;;;;;;17.47;59.71;100204.25;4398656;32;34325;-96
2021/09/05 04:57:16;;;;;;;;;;;;;;;17.60;59.28;100205.34;4419443;32;32329;-96
2021/09/05 05:00:04;;;;;;;;;;;;;;;16.98;60.44;100206.34;4405919;32;33430;-94
2021/09/05 05:02:46;;;;;;;;;;;;;;;17.35;59.21;100211.03;4400190;32;34615;-95
2021/09/05 05:05:28;;;;;;;;;;;;;;;17.48;59.39;100214.00;4410663;32;34762;-95
2021/09/05 05:08:23;;;;;;;;;;;;;;;17.85;58.65;100213.03;4412032;32;19972;-96
2021/09/05 05:11:05;;;;;;;;;;;;;;;17.62;59.29;100211.38;4386574;32;33745;-95
2021/09/05 05:13:47;;;;;;;;;;;;;;;17.38;59.36;100229.53;4409013;32;35470;-96
2021/09/05 05:16:31;;;;;;;;;;;;;;;18.06;58.00;100226.66;4397706;32;34348;-95
2021/09/05 05:19:15;;;;;;;;;;;;;;;17.52;59.12;100232.28;4379077;32;32662;-95
2021/09/05 05:22:00;;;;;;;;;;;;;;;17.40;58.88;100235.56;4408280;32;34551;-95
2021/09/05 05:24:43;;;;;;;;;;;;;;;17.69;59.00;100226.63;4403470;32;35810;-95
2021/09/05 05:27:29;;;;;;;;;;;;;;;18.07;58.22;100231.03;4357313;32;36058;-96
2021/09/05 05:30:18;;;;;;;;;;;;;;;18.02;57.60;100237.97;4371710;32;34297;-95
2021/09/05 05:33:01;;;;;;;;;;;;;;;17.40;58.94;100241.78;4388083;32;33005;-95
2021/09/05 05:35:43;;;;;;;;;;;;;;;17.82;57.70;100240.34;4393790;32;37396;-94
2021/09/05 05:38:26;;;;;;;;;;;;;;;17.79;57.98;100240.66;4405489;32;35248;-96
2021/09/05 05:41:20;;;;;;;;;;;;;;;18.28;56.16;100241.97;4426411;32;20267;-95
2021/09/05 05:44:02;;;;;;;;;;;;;;;18.45;54.87;100243.53;4421316;32;34376;-94
2021/09/05 05:46:44;;;;;;;;;;;;;;;18.36;55.25;100243.75;4396298;32;35504;-91
2021/09/05 05:49:27;;;;;;;;;;;;;;;18.05;55.64;100245.72;4393290;32;34003;-96
2021/09/05 05:52:10;;;;;;;;;;;;;;;18.45;54.75;100246.22;4371770;32;32289;-94
2021/09/05 05:54:52;;;;;;;;;;;;;;;18.13;54.93;100245.66;4409980;32;34602;-96
2021/09/05 06:00:50;;;;;;;;;;;;;;;18.62;52.59;100252.28;4365853;32;19980;-95
2021/09/05 06:03:32;;;;;;;;;;;;;;;18.26;53.25;100246.69;4379674;32;34802;-96
2021/09/05 06:06:14;;;;;;;;;;;;;;;18.35;52.96;100250.19;4356170;32;32923;-95
2021/09/05 06:08:57;;;;;;;;;;;;;;;18.57;52.75;100254.66;4369548;32;35431;-95
2021/09/05 06:11:40;;;;;;;;;;;;;;;18.58;52.33;100261.72;4363351;32;34326;-96
2021/09/05 06:14:22;;;;;;;;;;;;;;;18.81;51.50;100260.63;4369547;32;35015;-92
2021/09/05 06:17:30;;;;;;;;;;;;;;;18.71;51.18;100264.63;4350620;32;34077;-92
2021/09/05 06:20:39;;;;;;;;;;;;;;;18.60;51.18;100262.41;4387532;32;35734;-95
2021/09/05 06:23:26;;;;;;;;;;;;;;;19.19;51.95;100272.19;4399388;32;34603;-95
2021/09/05 06:26:08;;;;;;;;;;;;;;;18.91;51.17;100268.44;4386686;32;34240;-94
2021/09/05 06:28:51;;;;;;;;;;;;;;;19.41;49.40;100279.31;4379724;32;34423;-93
2021/09/05 06:31:56;;;;;;;;;;;;;;;19.59;49.96;100272.50;4388249;32;35738;-89
2021/09/05 06:34:44;;;;;;;;;;;;;;;19.00;49.75;100278.94;4378488;32;35841;-93
2021/09/05 06:37:52;;;;;;;;;;;;;;;19.45;49.24;100281.44;4375303;32;32314;-93
2021/09/05 06:40:40;;;;;;;;;;;;;;;19.59;50.35;100287.84;4392656;32;35848;-95
2021/09/05 06:43:49;;;;;;;;;;;;;;;20.05;48.53;100287.34;4374479;32;34366;-90
2021/09/05 06:46:17;;;;;;;;;;;;;;;20.14;47.24;100280.81;4374526;32;36097;-94
2021/09/05 06:49:26;;;;;;;;;;;;;;;19.98;47.42;100285.56;4408757;32;20003;-91
2021/09/05 06:52:33;;;;;;;;;;;;;;;20.00;47.38;100278.94;4384689;32;33367;-95
2021/09/05 06:55:22;;;;;;;;;;;;;;;19.98;45.81;100282.88;4393658;32;35725;-95
2021/09/05 06:58:30;;;;;;;;;;;;;;;20.20;46.18;100282.72;4404192;32;34214;-92
2021/09/05 07:01:18;;;;;;;;;;;;;;;20.18;44.89;100287.47;4383478;32;34579;-92
2021/09/05 07:04:27;;;;;;;;;;;;;;;19.75;44.61;100291.16;4405445;32;34709;-94
2021/09/05 07:07:15;;;;;;;;;;;;;;;20.57;44.68;100297.81;4379645;32;35824;-94
2021/09/05 07:10:26;;;;;;;;;;;;;;;20.27;43.65;100294.41;4401515;32;33862;-94
2021/09/05 07:13:30;;;;;;;;;;;;;;;20.21;44.23;100297.06;4401283;32;32765;-93
2021/09/05 07:16:23;;;;;;;;;;;;;;;20.10;44.52;100305.69;4397491;32;36115;-94
2021/09/05 07:19:06;;;;;;;;;;;;;;;20.27;44.12;100301.72;4390176;32;35412;-93
2021/09/05 07:22:01;;;;;;;;;;;;;;;20.52;43.27;100296.50;4374496;32;34511;-92
2021/09/05 07:24:50;;;;;;;;;;;;;;;20.62;42.52;100307.00;4383374;32;32422;-89
2021/09/05 07:27:45;;;;;;;;;;;;;;;20.88;41.76;100301.81;4378835;32;33566;-94
2021/09/05 07:30:32;;;;;;;;;;;;;;;21.17;41.56;100310.50;4363802;32;34314;-93
2021/09/05 07:33:36;;;;;;;;;;;;;;;21.16;40.37;100308.03;4374697;32;33590;-94
2021/09/05 07:36:24;;;;;;;;;;;;;;;21.44;37.66;100317.75;4378905;32;33671;-94
2021/09/05 07:39:29;;;;;;;;;;;;;;;21.16;37.45;100308.84;4379991;32;33414;-91
2021/09/05 07:41:57;;;;;;;;;;;;;;;21.20;37.90;100320.97;4384508;32;36063;-93
2021/09/05 07:45:03;;;;;;;;;;;;;;;21.32;38.21;100318.50;4374626;32;35676;-93
2021/09/05 07:47:51;;;;;;;;;;;;;;;21.83;37.45;100325.22;4380965;32;33502;-93
2021/09/05 07:50:39;;;;;;;;;;;;;;;21.74;36.12;100326.44;4389623;32;33589;-91
2021/09/05 07:53:11;;;;;;;;;;;;;;;21.56;36.78;100335.09;4361804;32;35612;-90
2021/09/05 07:55:39;;;;;;;;;;;;;;;21.48;36.17;100339.84;4384868;32;35392;-93
2021/09/05 07:58:10;;;;;;;;;;;;;;;21.72;36.08;100348.31;4368789;32;32233;-95
2021/09/05 08:00:57;;;;;;;;;;;;;;;21.99;35.89;100349.25;4377601;32;35339;-94
2021/09/05 08:03:39;;;;;;;;;;;;;;;21.69;36.09;100345.16;4378849;32;35424;-93
2021/09/05 08:06:15;;;;;;;;;;;;;;;21.81;35.39;100344.38;4377245;32;35357;-96
2021/09/05 08:08:57;;;;;;;;;;;;;;;21.66;35.30;100354.56;4379489;32;33431;-90
2021/09/05 08:11:27;;;;;;;;;;;;;;;21.68;34.84;100355.19;4362435;32;34145;-92
2021/09/05 08:14:16;;;;;;;;;;;;;;;21.59;35.30;100360.91;4375650;32;36588;-92
2021/09/05 08:16:58;;;;;;;;;;;;;;;21.68;35.26;100359.75;4394823;32;35018;-94
2021/09/05 08:19:48;;;;;;;;;;;;;;;21.94;35.00;100357.16;4372271;32;32627;-93
2021/09/05 08:22:36;;;;;;;;;;;;;;;21.96;35.17;100355.06;4398981;32;34190;-95
2021/09/05 08:25:05;;;;;;;;;;;;;;;22.12;35.26;100363.69;4398527;32;36223;-94
2021/09/05 08:27:53;;;;;;;;;;;;;;;22.46;34.70;100362.75;4406432;32;33929;-93
2021/09/05 08:30:38;;;;;;;;;;;;;;;22.58;34.52;100361.06;4399688;32;34750;-95
2021/09/05 08:33:23;;;;;;;;;;;;;;;22.28;34.50;100366.00;4404499;32;34185;-93
2021/09/05 08:36:10;;;;;;;;;;;;;;;22.88;33.41;100365.03;4382764;32;35642;-95
2021/09/05 08:38:49;;;;;;;;;;;;;;;23.24;33.64;100368.16;4373349;32;35270;-94
2021/09/05 08:41:41;;;;;;;;;;;;;;;23.26;34.62;100364.19;4381577;32;34058;-94
2021/09/05 08:44:50;;;;;;;;;;;;;;;23.68;33.04;100369.09;4385972;32;35090;-93
2021/09/05 08:47:43;;;;;;;;;;;;;;;23.54;33.94;100370.19;4373754;32;34421;-93
2021/09/05 08:50:52;;;;;;;;;;;;;;;23.10;34.04;100370.03;4372474;32;33842;-93
2021/09/05 08:53:53;;;;;;;;;;;;;;;22.96;33.42;100378.41;4358220;32;33131;-94
2021/09/05 08:56:43;;;;;;;;;;;;;;;23.37;34.11;100366.25;4373958;32;35205;-94
2021/09/05 08:59:32;;;;;;;;;;;;;;;23.02;34.47;100378.38;4373461;32;34388;-92
2021/09/05 09:02:26;;;;;;;;;;;;;;;23.50;34.03;100378.97;4364040;32;36204;-93
2021/09/05 09:04:54;;;;;;;;;;;;;;;22.73;34.32;100378.81;4375382;32;33016;-89
2021/09/05 09:07:46;;;;;;;;;;;;;;;23.14;33.79;100373.19;4373396;32;35047;-95
2021/09/05 09:10:19;;;;;;;;;;;;;;;23.07;33.23;100383.19;4372068;32;36632;-93
2021/09/05 09:12:49;;;;;;;;;;;;;;;22.80;33.91;100379.66;4372864;32;33371;-92
2021/09/05 09:15:37;;;;;;;;;;;;;;;22.91;33.96;100378.19;4361702;32;32301;-92
2021/09/05 09:18:43;;;;;;;;;;;;;;;23.14;34.13;100379.47;4367575;32;34606;-93
2021/09/05 09:21:40;;;;;;;;;;;;;;;23.30;34.94;100378.19;4372551;32;34564;-92
2021/09/05 09:24:21;;;;;;;;;;;;;;;23.65;33.03;100374.94;4384478;32;34966;-94
2021/09/05 09:27:10;;;;;;;;;;;;;;;23.99;34.12;100375.47;4372225;32;32203;-90
2021/09/05 09:29:47;;;;;;;;;;;;;;;23.57;33.29;100374.38;4354644;32;33209;-92
2021/09/05 09:32:55;;;;;;;;;;;;;;;23.70;32.74;100377.88;4373503;32;35155;-93
2021/09/05 09:35:25;;;;;;;;;;;;;;;24.06;33.01;100375.44;4383427;32;33694;-91
2021/09/05 09:38:15;;;;;;;;;;;;;;;24.28;33.44;100376.78;4390277;32;32534;-94
2021/09/05 09:40:49;;;;;;;;;;;;;;;24.06;32.84;100375.44;4377556;32;33073;-92
2021/09/05 09:43:23;;;;;;;;;;;;;;;24.27;33.38;100362.34;4368186;32;34529;-95
2021/09/05 09:46:37;;;;;;;;;;;;;;;23.86;34.77;100368.44;4384809;32;34128;-94
2021/09/05 09:49:10;;;;;;;;;;;;;;;24.24;31.93;100368.22;4373616;32;32362;-93
2021/09/05 09:51:44;;;;;;;;;;;;;;;24.14;32.46;100373.31;4388224;32;34262;-93
2021/09/05 09:54:36;;;;;;;;;;;;;;;24.49;35.21;100363.69;4388112;32;34360;-93
2021/09/05 09:57:07;;;;;;;;;;;;;;;24.48;32.66;100367.44;4399891;32;33613;-92
2021/09/05 09:59:43;;;;;;;;;;;;;;;24.27;32.73;100370.50;4399497;32;32008;-94
2021/09/05 10:02:28;;;;;;;;;;;;;;;24.17;31.84;100364.72;4376019;32;33074;-92
2021/09/05 10:04:59;;;;;;;;;;;;;;;24.19;33.04;100368.03;4399570;32;35244;-91
2021/09/05 10:07:50;;;;;;;;;;;;;;;24.21;31.83;100363.25;4387527;32;34099;-89
2021/09/05 10:10:20;;;;;;;;;;;;;;;24.40;31.71;100358.72;4380528;32;32964;-95
2021/09/05 10:12:49;;;;;;;;;;;;;;;24.62;31.65;100362.75;4386343;32;33436;-93
2021/09/05 10:15:47;;;;;;;;;;;;;;;24.63;33.82;100357.09;4379714;32;34590;-94
2021/09/05 10:19:02;;;;;;;;;;;;;;;25.30;31.98;100350.88;4388722;32;33679;-94
2021/09/05 10:21:56;;;;;;;;;;;;;;;25.53;30.91;100364.66;4377759;32;33153;-94
2021/09/05 10:24:25;;;;;;;;;;;;;;;24.78;30.43;100357.62;4361397;32;32560;-93
2021/09/05 10:27:17;;;;;;;;;;;;;;;24.72;31.53;100349.50;4399577;32;35144;-96
2021/09/05 10:30:07;;;;;;;;;;;;;;;24.68;31.29;100351.00;4392574;32;34876;-93
2021/09/05 10:32:46;;;;;;;;;;;;;;;24.68;32.00;100354.56;4386071;32;34138;-90
2021/09/05 10:35:35;;;;;;;;;;;;;;;24.92;31.31;100353.72;4371738;32;34875;-93
2021/09/05 10:38:12;;;;;;;;;;;;;;;25.01;31.54;100351.56;4386217;32;34755;-93
2021/09/05 10:40:42;;;;;;;;;;;;;;;25.02;30.90;100351.31;4388633;32;34871;-92
2021/09/05 10:44:03;;;;;;;;;;;;;;;25.18;30.46;100348.03;4387208;32;32045;-90
2021/09/05 10:46:35;;;;;;;;;;;;;;;25.02;31.00;100351.31;4389450;32;33564;-93
2021/09/05 10:49:45;;;;;;;;;;;;;;;25.30;30.48;100348.16;4387181;32;35329;-95
2021/09/05 10:52:44;;;;;;;;;;;;;;;25.66;31.65;100351.72;4398155;32;34521;-95
2021/09/05 10:55:52;;;;;;;;;;;;;;;25.64;30.33;100359.28;4389806;32;32295;-93
2021/09/05 10:58:23;;;;;;;;;;;;;;;25.83;29.60;100350.03;4400229;32;33324;-92
2021/09/05 11:01:02;;;;;;;;;;;;;;;25.47;29.89;100349.25;4400638;32;36530;-95
2021/09/05 11:04:02;;;;;;;;;;;;;;;25.75;31.05;100350.34;4388660;32;36065;-95
2021/09/05 11:07:04;;;;;;;;;;;;;;;25.57;30.17;100347.62;4387886;32;33983;-91
2021/09/05 11:09:52;;;;;;;;;;;;;;;25.83;30.89;100354.66;4398466;32;35206;-95
2021/09/05 11:12:41;;;;;;;;;;;;;;;26.06;30.39;100346.63;4387677;32;36994;-94
2021/09/05 11:15:42;;;;;;;;;;;;;;;25.94;30.60;100349.28;4370997;32;35443;-92
2021/09/05 11:18:51;;;;;;;;;;;;;;;25.99;30.06;100348.59;4358758;32;32134;-90
2021/09/05 11:21:40;;;;;;;;;;;;;;;26.06;28.89;100349.34;4364828;32;34316;-94
2021/09/05 11:24:14;;;;;;;;;;;;;;;26.21;28.98;100341.56;4361068;32;35571;-94
2021/09/05 11:27:21;;;;;;;;;;;;;;;26.41;29.43;100333.94;4358627;32;33474;-93
2021/09/05 11:29:57;;;;;;;;;;;;;;;26.48;29.67;100337.38;4357430;32;34465;-95
2021/09/05 11:32:29;;;;;;;;;;;;;;;25.92;29.80;100340.50;4370401;32;34250;-91
2021/09/05 11:35:10;;;;;;;;;;;;;;;25.61;29.80;100343.41;4398064;32;35919;-95
2021/09/05 11:38:00;;;;;;;;;;;;;;;25.82;29.58;100340.19;4386195;32;35007;-91
2021/09/05 11:40:54;;;;;;;;;;;;;;;25.82;30.21;100339.34;4399314;32;32735;-93
2021/09/05 11:44:05;;;;;;;;;;;;;;;26.27;28.72;100337.94;4396521;32;33696;-94
2021/09/05 11:47:09;;;;;;;;;;;;;;;27.10;28.22;100330.25;4399257;32;36535;-93
2021/09/05 11:50:19;;;;;;;;;;;;;;;27.49;27.67;100323.25;4387032;32;34003;-93
2021/09/05 11:53:27;;;;;;;;;;;;;;;26.99;28.66;100321.25;4396479;32;32175;-94
2021/09/05 11:56:29;;;;;;;;;;;;;;;28.16;28.85;100323.31;4387854;32;33354;-94
2021/09/05 11:59:20;;;;;;;;;;;;;;;28.26;26.66;100315.28;4397912;32;35624;-95
2021/09/05 12:02:05;;;;;;;;;;;;;;;29.31;25.64;100319.78;4376906;32;35215;-96
2021/09/05 12:05:12;;;;;;;;;;;;;;;29.52;26.70;100313.53;4386723;32;32235;-96
2021/09/05 12:08:08;;;;;;;;;;;;;;;30.06;24.44;100318.06;4386103;32;34767;-95
2021/09/05 12:11:02;;;;;;;;;;;;;;;29.78;25.24;100321.00;4386924;32;36864;-92
2021/09/05 12:13:59;;;;;;;;;;;;;;;28.99;25.06;100310.53;4396123;32;35119;-95
2021/09/05 12:16:29;;;;;;;;;;;;;;;28.80;25.53;100317.31;4386974;32;34325;-95
2021/09/05 12:19:54;;;;;;;;;;;;;;;28.77;26.01;100320.56;4378476;32;33000;-90
2021/09/05 12:22:26;;;;;;;;;;;;;;;28.75;24.39;100319.16;4386460;32;35080;-95
2021/09/05 12:25:20;;;;;;;;;;;;;;;29.60;23.92;100306.75;4386645;32;35045;-94
2021/09/05 12:28:09;;;;;;;;;;;;;;;30.45;24.82;100316.00;4387264;32;33959;-95
2021/09/05 12:31:17;;;;;;;;;;;;;;;30.81;22.00;100305.06;4387353;32;33505;-95
2021/09/05 12:33:54;;;;;;;;;;;;;;;30.78;23.02;100306.41;4398648;32;36383;-95
2021/09/05 12:36:56;;;;;;;;;;;;;;;30.18;25.29;100309.69;4388828;32;34230;-91
2021/09/05 12:40:16;;;;;;;;;;;;;;;29.50;23.07;100306.62;4395880;32;33332;-95
2021/09/05 12:43:06;;;;;;;;;;;;;;;30.28;23.08;100305.09;4388038;32;33433;-95
2021/09/05 12:46:25;;;;;;;;;;;;;;;30.75;23.12;100306.94;4386008;32;37447;-94
2021/09/05 12:49:41;;;;;;;;;;;;;;;29.40;23.84;100307.31;4398230;32;33933;-93
2021/09/05 12:52:39;;;;;;;;;;;;;;;29.24;23.39;100310.91;4391366;32;32737;-94
2021/09/05 12:55:29;;;;;;;;;;;;;;;28.83;25.21;100305.03;4374923;32;35122;-94
2021/09/05 12:57:59;;;;;;;;;;;;;;;29.04;25.83;100304.28;4387977;32;37214;-92
2021/09/05 13:00:30;;;;;;;;;;;;;;;29.29;25.84;100299.19;4395693;32;35067;-95
2021/09/05 13:03:27;;;;;;;;;;;;;;;29.56;24.88;100294.66;4379022;32;34005;-94
2021/09/05 13:06:35;;;;;;;;;;;;;;;30.05;23.67;100288.94;4390601;32;33658;-90
2021/09/05 13:09:45;;;;;;;;;;;;;;;28.87;24.57;100298.00;4386120;32;34405;-94
2021/09/05 13:12:39;;;;;;;;;;;;;;;28.83;25.28;100302.31;4396920;32;35259;-91
2021/09/05 13:15:10;;;;;;;;;;;;;;;28.48;25.43;100296.22;4395102;32;32838;-92
2021/09/05 13:17:42;;;;;;;;;;;;;;;27.97;26.05;100301.84;4388657;32;34842;-95
2021/09/05 13:20:29;;;;;;;;;;;;;;;28.39;25.50;100297.72;4389482;32;34763;-95
2021/09/05 13:23:34;;;;;;;;;;;;;;;29.26;24.63;100292.28;4391456;32;34715;-95
2021/09/05 13:26:31;;;;;;;;;;;;;;;28.52;24.93;100295.50;4382122;32;34118;-94
2021/09/05 13:29:19;;;;;;;;;;;;;;;28.62;25.69;100292.09;4387852;32;35484;-93
2021/09/05 13:32:11;;;;;;;;;;;;;;;29.23;24.90;100292.81;4379810;32;35350;-95
2021/09/05 13:35:07;;;;;;;;;;;;;;;29.23;24.63;100287.31;4397501;32;35848;-94
2021/09/05 13:37:54;;;;;;;;;;;;;;;28.19;25.09;100294.59;4377920;32;34755;-95
2021/09/05 13:41:02;;;;;;;;;;;;;;;29.77;25.79;100277.34;4384171;32;34821;-95
2021/09/05 13:44:10;;;;;;;;;;;;;;;29.13;23.87;100280.87;4383581;32;36798;-95
2021/09/05 13:47:05;;;;;;;;;;;;;;;28.05;25.20;100294.06;4383171;32;36152;-95
2021/09/05 13:50:14;;;;;;;;;;;;;;;28.92;24.96;100287.13;4377403;32;33688;-94
2021/09/05 13:53:03;;;;;;;;;;;;;;;28.91;24.67;100291.78;4388847;32;33024;-95
2021/09/05 13:56:06;;;;;;;;;;;;;;;29.19;26.07;100296.31;4386257;32;34730;-94
2021/09/05 13:58:55;;;;;;;;;;;;;;;30.34;23.00;100287.59;4380976;32;36321;-94
2021/09/05 14:01:58;;;;;;;;;;;;;;;29.27;25.48;100291.22;4380737;32;35652;-94
2021/09/05 14:04:49;;;;;;;;;;;;;;;28.90;24.35;100295.56;4382955;32;35239;-95
2021/09/05 14:07:37;;;;;;;;;;;;;;;28.44;24.80;100297.81;4396129;32;34724;-95
2021/09/05 14:10:34;;;;;;;;;;;;;;;28.33;25.79;100298.69;4371879;32;34586;-95
2021/09/05 14:13:17;;;;;;;;;;;;;;;29.03;25.53;100294.41;4387948;32;34867;-95
2021/09/05 14:16:05;;;;;;;;;;;;;;;28.56;25.16;100287.63;4388978;32;35862;-95
2021/09/05 14:18:53;;;;;;;;;;;;;;;27.94;25.55;100294.13;4394932;32;34738;-95
2021/09/05 14:22:05;;;;;;;;;;;;;;;29.21;24.85;100285.91;4394558;32;34607;-95
2021/09/05 14:24:48;;;;;;;;;;;;;;;29.07;24.58;100287.38;4395664;32;33960;-95